Time;durP1;ratioP1;P1;durP2;ratioP2;P2;SDS_P1;SDS_P2;PMS_P1;PMS_P2;Temp;Humidity;BMP_temperature;BMP_pressure;BME280_temperature;BME280_humidity;BME280_pressure;Samples;Min_cycle;Max_cycle;Signal;HPM_P1;HPM_P2
2022/07/16 00:02:53;;;;;;;2.53;1.57;;;15.70;51.30;;;;;;915746;152;27435;-73
2022/07/16 00:05:19;;;;;;;2.73;1.77;;;15.70;51.30;;;;;;945740;145;27411;-70
2022/07/16 00:07:46;;;;;;;2.73;2.20;;;15.60;51.70;;;;;;960950;145;27279;-71
2022/07/16 00:10:13;;;;;;;3.53;2.20;;;15.50;51.70;;;;;;959210;145;27377;-71
2022/07/16 00:12:39;;;;;;;5.43;2.00;;;15.50;51.90;;;;;;960971;145;27745;-72
2022/07/16 00:15:06;;;;;;;4.53;1.90;;;15.50;51.90;;;;;;959264;145;27396;-72
2022/07/16 00:17:32;;;;;;;3.70;1.80;;;15.40;52.00;;;;;;960258;145;27342;-70
2022/07/16 00:19:59;;;;;;;1.90;1.80;;;15.40;52.10;;;;;;957913;145;27364;-70
2022/07/16 00:22:26;;;;;;;3.37;2.00;;;15.30;52.20;;;;;;959489;145;27318;-70
2022/07/16 00:24:52;;;;;;;1.70;1.60;;;15.30;52.40;;;;;;960057;145;27301;-70
2022/07/16 00:27:19;;;;;;;3.33;2.13;;;15.20;52.50;;;;;;957012;145;27344;-71
2022/07/16 00:29:45;;;;;;;2.13;1.90;;;15.20;52.60;;;;;;934577;151;27496;-71
2022/07/16 00:32:12;;;;;;;2.47;2.00;;;15.10;52.60;;;;;;943434;148;27473;-71
2022/07/16 00:34:39;;;;;;;2.60;2.00;;;15.10;52.80;;;;;;936872;151;27357;-70
2022/07/16 00:37:05;;;;;;;2.20;1.87;;;15.10;52.90;;;;;;936904;149;27471;-71
2022/07/16 00:39:32;;;;;;;2.47;2.00;;;15.00;53.00;;;;;;917562;152;27369;-71
2022/07/16 00:41:58;;;;;;;1.80;1.70;;;15.00;53.20;;;;;;920276;152;27528;-70
2022/07/16 00:44:25;;;;;;;3.30;1.83;;;14.90;53.30;;;;;;936927;149;27361;-70
2022/07/16 00:46:51;;;;;;;2.57;1.53;;;14.90;53.50;;;;;;933835;149;27359;-71
2022/07/16 00:49:19;;;;;;;2.43;2.20;;;14.80;53.50;;;;;;937135;149;27307;-70
2022/07/16 00:51:47;;;;;;;2.10;1.73;;;14.80;53.60;;;;;;936766;149;27370;-70
2022/07/16 00:54:14;;;;;;;2.33;1.43;;;14.70;53.60;;;;;;937411;149;27378;-71
2022/07/16 00:56:40;;;;;;;1.57;1.43;;;14.70;53.80;;;;;;936144;149;27638;-70
2022/07/16 00:59:07;;;;;;;1.57;1.47;;;14.60;54.00;;;;;;934738;149;27875;-72
2022/07/16 01:01:34;;;;;;;2.67;1.60;;;14.60;54.00;;;;;;938355;149;27318;-71
2022/07/16 01:04:02;;;;;;;2.03;1.53;;;14.50;54.10;;;;;;937002;149;27378;-71
2022/07/16 01:06:27;;;;;;;2.57;1.70;;;14.50;54.20;;;;;;935882;149;27393;-70
2022/07/16 01:08:53;;;;;;;2.07;1.40;;;14.40;53.60;;;;;;934638;149;27426;-71
2022/07/16 01:11:20;;;;;;;2.80;1.73;;;14.40;54.40;;;;;;936004;149;27335;-70
2022/07/16 01:13:46;;;;;;;1.60;1.50;;;14.40;54.50;;;;;;936792;149;27417;-71
2022/07/16 01:16:13;;;;;;;4.10;1.60;;;14.30;54.60;;;;;;939376;149;27485;-73
2022/07/16 01:18:40;;;;;;;2.10;1.70;;;14.30;54.80;;;;;;935609;149;27473;-71
2022/07/16 01:21:06;;;;;;;1.50;1.40;;;14.20;54.90;;;;;;936214;149;27341;-71
2022/07/16 01:23:33;;;;;;;3.13;1.70;;;14.20;55.00;;;;;;936187;149;27338;-70
2022/07/16 01:25:59;;;;;;;1.93;1.47;;;14.20;55.10;;;;;;934023;149;27337;-72
2022/07/16 01:28:26;;;;;;;1.90;1.63;;;14.10;55.10;;;;;;937484;149;27391;-71
2022/07/16 01:30:53;;;;;;;2.77;1.73;;;14.10;55.40;;;;;;937489;149;27497;-71
2022/07/16 01:33:20;;;;;;;1.90;1.77;;;14.10;55.40;;;;;;936550;149;27384;-70
2022/07/16 01:35:46;;;;;;;4.23;1.60;;;14.00;55.50;;;;;;935898;149;27360;-71
2022/07/16 01:38:12;;;;;;;1.73;1.53;;;14.00;55.60;;;;;;937367;149;27282;-71
2022/07/16 01:40:39;;;;;;;3.40;1.80;;;14.00;55.70;;;;;;935898;149;27355;-72
2022/07/16 01:43:06;;;;;;;2.20;1.60;;;13.90;55.80;;;;;;937959;149;27450;-73
2022/07/16 01:45:32;;;;;;;2.00;1.77;;;13.90;55.90;;;;;;932596;149;27468;-70
2022/07/16 01:47:59;;;;;;;2.93;1.90;;;13.90;56.00;;;;;;937021;149;27431;-70
2022/07/16 01:50:25;;;;;;;1.90;1.80;;;13.80;56.40;;;;;;938849;149;27468;-72
2022/07/16 01:52:52;;;;;;;2.43;1.80;;;13.80;56.20;;;;;;936059;149;27367;-71
2022/07/16 01:55:18;;;;;;;2.53;2.33;;;13.70;56.30;;;;;;935423;149;27329;-73
2022/07/16 01:57:45;;;;;;;2.07;1.87;;;13.70;56.50;;;;;;935329;149;27361;-71
2022/07/16 02:00:12;;;;;;;2.50;2.27;;;13.60;56.60;;;;;;934698;149;27442;-71
2022/07/16 02:02:38;;;;;;;3.27;2.13;;;13.60;56.80;;;;;;937697;149;27261;-71
2022/07/16 02:05:05;;;;;;;2.67;2.20;;;13.60;57.00;;;;;;935492;149;27910;-73
2022/07/16 02:07:32;;;;;;;2.67;2.00;;;13.60;57.10;;;;;;936640;149;27733;-72
2022/07/16 02:09:58;;;;;;;2.93;1.80;;;13.60;57.30;;;;;;937084;149;27392;-70
2022/07/16 02:12:25;;;;;;;2.00;1.80;;;13.60;57.40;;;;;;937460;149;27386;-71
2022/07/16 02:14:51;;;;;;;2.80;2.10;;;13.50;57.40;;;;;;937286;149;27329;-71
2022/07/16 02:17:18;;;;;;;1.77;1.67;;;13.50;57.50;;;;;;937262;149;27383;-71
2022/07/16 02:19:45;;;;;;;2.33;2.10;;;13.50;57.60;;;;;;935248;149;27307;-71
2022/07/16 02:22:11;;;;;;;3.20;2.00;;;13.50;57.70;;;;;;938051;149;27713;-73
2022/07/16 02:24:38;;;;;;;2.63;2.00;;;13.50;57.90;;;;;;938291;149;27459;-71
2022/07/16 02:27:04;;;;;;;3.00;2.20;;;13.50;57.90;;;;;;937385;149;28751;-71
2022/07/16 02:29:31;;;;;;;2.93;2.00;;;13.40;58.00;;;;;;936835;149;27371;-71
2022/07/16 02:31:57;;;;;;;3.07;2.17;;;13.40;57.90;;;;;;936720;149;27274;-70
2022/07/16 02:34:24;;;;;;;2.23;1.90;;;13.40;58.00;;;;;;937766;149;27428;-74
2022/07/16 02:36:51;;;;;;;2.83;2.20;;;13.40;58.00;;;;;;937822;149;27442;-70
2022/07/16 02:39:17;;;;;;;3.00;2.30;;;13.30;58.10;;;;;;938152;149;27388;-71
2022/07/16 02:41:44;;;;;;;3.10;2.00;;;13.30;58.30;;;;;;935756;149;27635;-71
2022/07/16 02:44:10;;;;;;;2.60;2.27;;;13.30;58.50;;;;;;937531;149;27334;-71
2022/07/16 02:46:37;;;;;;;2.67;2.10;;;13.20;58.60;;;;;;936759;149;27341;-72
2022/07/16 02:49:04;;;;;;;2.63;2.43;;;13.20;58.60;;;;;;937073;149;27460;-71
2022/07/16 02:51:30;;;;;;;4.63;2.20;;;13.20;58.80;;;;;;937116;149;27430;-71
2022/07/16 02:53:57;;;;;;;3.13;2.13;;;13.20;58.90;;;;;;937918;149;27345;-71
2022/07/16 02:56:23;;;;;;;2.40;2.10;;;13.10;59.00;;;;;;936212;149;27347;-71
2022/07/16 02:58:50;;;;;;;2.33;2.13;;;13.10;59.10;;;;;;935700;149;27423;-71
2022/07/16 03:01:17;;;;;;;3.07;2.20;;;13.10;59.20;;;;;;937016;149;27368;-72
2022/07/16 03:03:43;;;;;;;3.83;2.20;;;13.10;59.30;;;;;;937019;149;27475;-71
2022/07/16 03:06:10;;;;;;;2.37;2.17;;;13.10;59.30;;;;;;939663;149;28510;-71
2022/07/16 03:08:36;;;;;;;2.17;1.90;;;13.10;59.40;;;;;;939644;149;27324;-71
2022/07/16 03:11:03;;;;;;;3.23;2.13;;;13.00;59.40;;;;;;936419;149;27374;-71
2022/07/16 03:13:29;;;;;;;2.90;2.47;;;13.00;59.60;;;;;;939467;149;27355;-72
2022/07/16 03:15:56;;;;;;;3.30;2.30;;;13.00;59.50;;;;;;936216;149;27382;-71
2022/07/16 03:18:23;;;;;;;2.57;2.30;;;13.00;59.00;;;;;;938058;149;27498;-71
2022/07/16 03:20:49;;;;;;;2.33;2.13;;;13.00;59.80;;;;;;937368;149;27620;-71
2022/07/16 03:23:16;;;;;;;2.30;2.03;;;13.00;59.90;;;;;;938856;149;27391;-71
2022/07/16 03:25:42;;;;;;;3.67;2.07;;;12.90;60.00;;;;;;937616;149;27340;-71
2022/07/16 03:28:09;;;;;;;2.10;1.80;;;12.90;60.00;;;;;;936502;149;27515;-73
2022/07/16 03:30:36;;;;;;;3.17;2.70;;;12.90;60.00;;;;;;936590;149;27420;-71
2022/07/16 03:33:02;;;;;;;3.80;2.13;;;12.80;60.00;;;;;;937422;149;27511;-70
2022/07/16 03:35:29;;;;;;;5.10;2.60;;;12.90;60.20;;;;;;937206;149;27331;-70
2022/07/16 03:40:40;;;;;;;2.40;2.20;;;12.80;60.40;;;;;;937426;149;27407;-70
2022/07/16 03:43:07;;;;;;;2.57;2.27;;;12.80;60.40;;;;;;936913;149;27405;-71
2022/07/16 03:45:34;;;;;;;3.17;2.50;;;12.70;60.70;;;;;;937091;149;27463;-70
2022/07/16 03:48:00;;;;;;;2.30;2.10;;;12.70;60.90;;;;;;937186;149;27406;-70
2022/07/16 03:50:27;;;;;;;2.10;2.00;;;12.70;61.10;;;;;;938853;149;27345;-70
2022/07/16 03:52:53;;;;;;;3.37;2.83;;;12.70;61.00;;;;;;935942;149;27316;-70
2022/07/16 03:55:20;;;;;;;2.40;2.20;;;12.70;61.20;;;;;;936894;149;27457;-71
2022/07/16 03:57:46;;;;;;;2.63;2.37;;;12.70;61.40;;;;;;938488;149;27429;-70
2022/07/16 04:00:13;;;;;;;2.43;2.23;;;12.70;61.40;;;;;;937359;149;27377;-69
2022/07/16 04:02:40;;;;;;;3.00;2.30;;;12.80;61.60;;;;;;937718;149;27343;-70
2022/07/16 04:05:06;;;;;;;2.73;2.50;;;12.80;61.70;;;;;;937155;149;27346;-70
2022/07/16 04:07:33;;;;;;;2.83;2.63;;;12.80;61.70;;;;;;938779;149;27389;-70
2022/07/16 04:09:59;;;;;;;3.00;2.57;;;12.80;61.80;;;;;;939652;149;27480;-71
2022/07/16 04:12:26;;;;;;;3.07;2.80;;;12.80;62.00;;;;;;940850;149;27536;-69
2022/07/16 04:14:53;;;;;;;2.20;2.10;;;12.90;62.00;;;;;;937535;149;27364;-69
2022/07/16 04:17:19;;;;;;;2.87;2.50;;;12.90;62.10;;;;;;938603;149;27268;-69
2022/07/16 04:19:46;;;;;;;4.40;2.30;;;12.90;62.10;;;;;;937898;149;27345;-69
2022/07/16 04:22:12;;;;;;;3.20;2.73;;;13.00;62.30;;;;;;935508;149;27781;-71
2022/07/16 04:24:39;;;;;;;4.80;2.60;;;13.10;62.20;;;;;;937780;149;27828;-69
2022/07/16 04:27:06;;;;;;;2.57;2.33;;;13.10;62.20;;;;;;935880;149;27453;-69
2022/07/16 04:29:32;;;;;;;2.87;2.67;;;13.20;62.30;;;;;;938929;149;27370;-70
2022/07/16 04:31:59;;;;;;;3.23;2.30;;;13.30;62.40;;;;;;936570;149;27381;-69
2022/07/16 04:34:25;;;;;;;3.57;2.63;;;13.30;62.30;;;;;;937488;149;27454;-69
2022/07/16 04:36:52;;;;;;;2.73;2.40;;;13.40;62.30;;;;;;937605;149;27377;-69
2022/07/16 04:39:18;;;;;;;4.33;3.00;;;13.50;62.30;;;;;;934053;149;27379;-69
2022/07/16 04:41:45;;;;;;;2.70;2.30;;;13.60;62.40;;;;;;937395;149;27263;-69
2022/07/16 04:44:12;;;;;;;2.77;2.30;;;13.70;62.40;;;;;;937224;149;27375;-69
2022/07/16 04:46:38;;;;;;;3.40;2.60;;;13.80;62.40;;;;;;935530;149;28804;-70
2022/07/16 04:49:05;;;;;;;2.87;2.60;;;13.90;62.40;;;;;;935030;149;27372;-71
2022/07/16 04:51:31;;;;;;;3.10;2.50;;;14.00;62.40;;;;;;937417;149;27409;-69
2022/07/16 04:53:58;;;;;;;2.60;2.40;;;14.10;62.30;;;;;;936467;149;27337;-69
2022/07/16 04:56:25;;;;;;;2.50;2.30;;;14.20;62.40;;;;;;937066;149;27333;-71
2022/07/16 04:58:51;;;;;;;2.50;2.30;;;14.40;62.60;;;;;;935868;149;27303;-70
2022/07/16 05:01:18;;;;;;;3.27;2.40;;;14.60;62.90;;;;;;936508;149;27318;-71
2022/07/16 05:03:44;;;;;;;2.50;2.30;;;14.90;63.20;;;;;;936371;149;27384;-69
2022/07/16 05:06:11;;;;;;;2.58;2.37;;;15.30;63.80;;;;;;935812;149;27379;-69
2022/07/16 05:08:38;;;;;;;2.33;1.90;;;15.70;64.10;;;;;;935362;149;27418;-69
2022/07/16 05:11:04;;;;;;;2.50;2.30;;;16.30;64.40;;;;;;934827;149;27318;-70
2022/07/16 05:13:31;;;;;;;2.58;2.25;;;16.90;64.30;;;;;;936725;149;27510;-69
2022/07/16 05:15:57;;;;;;;3.40;2.55;;;17.70;63.90;;;;;;937393;149;27352;-72
2022/07/16 05:18:24;;;;;;;2.47;2.27;;;18.40;63.10;;;;;;936088;149;27350;-71
2022/07/16 05:20:50;;;;;;;2.50;2.30;;;19.20;62.10;;;;;;936731;149;27312;-70
2022/07/16 05:23:17;;;;;;;3.10;2.30;;;20.00;61.10;;;;;;935916;149;27339;-70
2022/07/16 05:25:44;;;;;;;3.45;2.60;;;20.80;60.10;;;;;;936391;149;27420;-71
2022/07/16 05:28:10;;;;;;;2.50;2.10;;;21.50;59.20;;;;;;935415;149;27371;-73
2022/07/16 05:30:37;;;;;;;2.02;1.82;;;22.30;58.30;;;;;;937197;149;27357;-70
2022/07/16 05:33:03;;;;;;;2.77;2.02;;;23.10;57.30;;;;;;939059;151;27366;-70
2022/07/16 05:35:30;;;;;;;3.12;1.95;;;23.90;56.40;;;;;;938971;151;27471;-72
2022/07/16 05:37:57;;;;;;;2.40;2.10;;;24.70;55.40;;;;;;938850;149;27329;-71
2022/07/16 05:40:23;;;;;;;2.92;2.08;;;25.40;54.40;;;;;;940148;148;27403;-71
2022/07/16 05:42:50;;;;;;;2.40;2.08;;;26.10;53.40;;;;;;941039;149;27473;-70
2022/07/16 05:45:16;;;;;;;3.85;1.80;;;26.80;52.60;;;;;;940080;151;27427;-70
2022/07/16 05:47:43;;;;;;;1.77;1.57;;;27.40;51.60;;;;;;941327;149;27339;-70
2022/07/16 05:50:10;;;;;;;2.50;1.77;;;28.10;50.70;;;;;;938648;151;27412;-70
2022/07/16 05:52:36;;;;;;;1.80;1.70;;;28.70;49.60;;;;;;940308;151;27448;-70
2022/07/16 05:55:03;;;;;;;2.67;1.98;;;29.30;48.70;;;;;;941016;148;27423;-72
2022/07/16 05:57:29;;;;;;;2.00;1.55;;;29.80;47.90;;;;;;940039;148;27710;-70
2022/07/16 05:59:56;;;;;;;1.67;1.52;;;30.30;47.00;;;;;;941966;149;28791;-70
2022/07/16 06:02:23;;;;;;;3.00;1.70;;;30.70;46.10;;;;;;940714;148;27417;-70
2022/07/16 06:04:49;;;;;;;2.08;1.95;;;31.20;45.60;;;;;;939723;148;27353;-70
2022/07/16 06:07:16;;;;;;;1.98;1.57;;;31.60;45.00;;;;;;941674;149;27325;-73
2022/07/16 06:09:43;;;;;;;1.52;1.42;;;32.10;44.50;;;;;;939845;149;27437;-71
2022/07/16 06:12:09;;;;;;;1.50;1.40;;;32.50;43.80;;;;;;940492;148;27444;-72
2022/07/16 06:14:36;;;;;;;1.95;1.55;;;33.00;43.30;;;;;;939595;151;27360;-71
2022/07/16 06:17:02;;;;;;;1.52;1.40;;;33.50;42.80;;;;;;940254;151;27327;-71
2022/07/16 06:19:29;;;;;;;2.05;1.25;;;34.00;42.20;;;;;;939187;148;27761;-72
2022/07/16 06:21:55;;;;;;;1.90;1.30;;;34.50;41.50;;;;;;938181;148;27470;-71
2022/07/16 06:24:22;;;;;;;1.87;1.32;;;34.90;40.80;;;;;;942824;151;27386;-70
2022/07/16 06:26:48;;;;;;;2.02;1.62;;;35.20;39.80;;;;;;941899;149;26244;-71
2022/07/16 06:29:15;;;;;;;1.42;1.27;;;35.50;39.20;;;;;;939880;149;26314;-71
2022/07/16 06:31:42;;;;;;;1.17;1.10;;;35.90;39.00;;;;;;940621;149;26204;-71
2022/07/16 06:34:08;;;;;;;2.47;1.52;;;36.10;38.70;;;;;;940651;149;26549;-73
2022/07/16 06:36:35;;;;;;;1.60;1.50;;;36.40;38.10;;;;;;940423;151;26300;-71
2022/07/16 06:39:03;;;;;;;2.22;1.42;;;36.90;37.60;;;;;;939959;148;26213;-70
2022/07/16 06:41:28;;;;;;;1.67;1.57;;;37.20;37.20;;;;;;938296;148;26260;-71
2022/07/16 06:43:55;;;;;;;1.67;1.40;;;37.60;36.90;;;;;;942007;149;26329;-70
2022/07/16 06:46:21;;;;;;;1.47;1.30;;;37.90;36.10;;;;;;938764;149;26252;-69
2022/07/16 06:48:48;;;;;;;1.35;1.25;;;38.20;35.40;;;;;;939837;151;26277;-70
2022/07/16 06:51:14;;;;;;;1.10;1.00;;;38.50;35.10;;;;;;939628;149;26324;-70
2022/07/16 06:53:41;;;;;;;2.08;1.52;;;38.80;34.90;;;;;;938396;151;27316;-69
2022/07/16 06:56:08;;;;;;;2.37;1.35;;;39.10;34.40;;;;;;939278;151;26268;-68
2022/07/16 06:58:34;;;;;;;2.75;1.10;;;39.40;34.10;;;;;;939082;148;26213;-69
2022/07/16 07:01:01;;;;;;;1.40;1.30;;;39.60;33.70;;;;;;942907;151;26332;-69
2022/07/16 07:03:28;;;;;;;2.62;1.40;;;40.00;33.50;;;;;;942073;148;26425;-68
2022/07/16 07:05:54;;;;;;;1.47;1.10;;;40.30;33.00;;;;;;940783;149;26255;-69
2022/07/16 07:08:21;;;;;;;4.35;1.45;;;40.60;32.40;;;;;;940609;149;26344;-68
2022/07/16 07:10:47;;;;;;;2.22;1.12;;;41.00;32.00;;;;;;940912;149;26253;-69
2022/07/16 07:13:14;;;;;;;1.45;1.05;;;41.30;31.60;;;;;;939365;151;26334;-71
2022/07/16 07:15:41;;;;;;;2.08;1.12;;;41.60;31.20;;;;;;941715;151;26272;-68
2022/07/16 07:18:07;;;;;;;1.15;0.88;;;41.80;30.80;;;;;;940612;149;27690;-68
2022/07/16 07:20:33;;;;;;;1.70;1.00;;;42.10;30.40;;;;;;939505;151;26306;-68
2022/07/16 07:23:00;;;;;;;1.07;0.98;;;42.40;30.00;;;;;;939374;149;26225;-69
2022/07/16 07:25:27;;;;;;;1.45;0.95;;;42.60;29.60;;;;;;939363;148;26381;-69
2022/07/16 07:27:53;;;;;;;1.55;1.30;;;42.90;29.40;;;;;;939161;148;26372;-68
2022/07/16 07:30:20;;;;;;;2.20;1.22;;;43.10;29.00;;;;;;939787;148;26316;-69
2022/07/16 07:32:46;;;;;;;1.00;0.88;;;43.30;28.70;;;;;;938327;148;26321;-69
2022/07/16 07:35:13;;;;;;;1.22;0.80;;;43.50;28.50;;;;;;934988;149;26254;-70
2022/07/16 07:37:40;;;;;;;2.00;0.93;;;43.80;28.50;;;;;;934763;149;26228;-70
2022/07/16 07:40:06;;;;;;;4.05;0.90;;;43.90;28.20;;;;;;935189;149;26396;-71
2022/07/16 07:42:33;;;;;;;1.10;0.70;;;44.30;27.90;;;;;;917951;152;26322;-69
2022/07/16 07:44:59;;;;;;;0.80;0.80;;;44.50;27.40;;;;;;933824;149;26292;-68
2022/07/16 07:47:28;;;;;;;1.37;1.00;;;44.80;27.20;;;;;;937302;149;26358;-69
2022/07/16 07:49:53;;;;;;;1.22;0.82;;;44.90;26.90;;;;;;933973;149;26285;-69
2022/07/16 07:52:19;;;;;;;2.08;1.10;;;45.10;26.70;;;;;;938527;150;26281;-71
2022/07/16 07:54:46;;;;;;;1.90;1.00;;;45.20;26.40;;;;;;937562;149;26298;-68
2022/07/16 07:57:12;;;;;;;1.02;0.70;;;45.40;26.20;;;;;;928010;152;26274;-69
2022/07/16 07:59:39;;;;;;;1.55;1.00;;;45.60;26.10;;;;;;934720;149;26273;-69
2022/07/16 08:02:06;;;;;;;0.72;0.72;;;45.70;25.90;;;;;;937221;149;26380;-68
2022/07/16 08:04:33;;;;;;;2.52;0.80;;;45.80;25.60;;;;;;935645;149;26253;-69
2022/07/16 08:06:59;;;;;;;1.62;1.10;;;45.90;25.60;;;;;;936068;149;26273;-70
2022/07/16 08:09:25;;;;;;;1.40;0.68;;;46.00;25.40;;;;;;934813;149;26285;-69
2022/07/16 08:11:52;;;;;;;1.82;0.90;;;46.20;24.80;;;;;;937149;149;26169;-69
2022/07/16 08:14:19;;;;;;;1.40;0.65;;;46.30;25.10;;;;;;935272;149;26238;-70
2022/07/16 08:16:45;;;;;;;1.87;1.25;;;46.50;25.00;;;;;;934238;149;26360;-69
2022/07/16 08:19:12;;;;;;;1.07;0.82;;;46.70;24.70;;;;;;936243;149;26250;-70
2022/07/16 08:21:38;;;;;;;1.67;0.93;;;46.80;24.20;;;;;;935712;149;26390;-69
2022/07/16 08:26:50;;;;;;;1.85;0.72;;;47.00;23.90;;;;;;935049;149;26379;-69
2022/07/16 08:29:16;;;;;;;1.52;0.95;;;47.10;23.80;;;;;;935424;149;26264;-69
2022/07/16 08:31:43;;;;;;;0.80;0.75;;;47.10;23.30;;;;;;934724;149;26355;-68
2022/07/16 08:34:09;;;;;;;1.45;0.95;;;47.00;23.30;;;;;;936573;149;26296;-71
2022/07/16 08:36:36;;;;;;;1.95;0.78;;;46.90;23.30;;;;;;936772;149;26280;-69
2022/07/16 08:39:03;;;;;;;1.05;0.80;;;46.80;23.20;;;;;;935795;149;26251;-68
2022/07/16 08:41:29;;;;;;;1.20;1.02;;;46.70;23.20;;;;;;936850;149;26268;-69
2022/07/16 08:43:56;;;;;;;1.35;0.90;;;46.60;23.20;;;;;;936322;149;26281;-69
2022/07/16 08:46:22;;;;;;;0.88;0.72;;;46.40;22.90;;;;;;936854;149;26342;-70
2022/07/16 08:48:49;;;;;;;1.40;0.90;;;46.30;23.00;;;;;;937551;149;26369;-69
2022/07/16 08:51:16;;;;;;;1.30;1.02;;;46.20;23.00;;;;;;937040;149;27294;-69
2022/07/16 08:53:42;;;;;;;1.07;0.95;;;46.20;23.10;;;;;;935436;149;26355;-69
2022/07/16 08:56:09;;;;;;;1.62;1.00;;;46.10;23.00;;;;;;937976;149;26257;-71
2022/07/16 08:58:35;;;;;;;1.32;0.80;;;46.10;22.90;;;;;;939221;148;26217;-70
2022/07/16 09:01:02;;;;;;;1.22;0.70;;;46.00;22.90;;;;;;938155;149;26365;-68
2022/07/16 09:03:29;;;;;;;1.70;0.98;;;46.00;22.70;;;;;;937122;149;26375;-69
2022/07/16 09:05:55;;;;;;;2.35;1.05;;;45.90;22.50;;;;;;935313;149;26249;-68
2022/07/16 09:08:22;;;;;;;1.30;1.20;;;45.70;22.40;;;;;;937947;149;26217;-69
2022/07/16 09:10:48;;;;;;;3.02;1.22;;;45.60;22.20;;;;;;937762;149;26326;-69
2022/07/16 09:13:15;;;;;;;4.67;1.22;;;45.20;22.30;;;;;;937252;149;26339;-70
2022/07/16 09:15:41;;;;;;;3.85;1.07;;;44.80;22.30;;;;;;937351;149;26361;-68
2022/07/16 09:18:23;;;;;;;1.45;1.10;;;44.30;22.20;;;;;;938886;149;28672;-69
2022/07/16 09:20:55;;;;;;;2.90;1.30;;;43.60;22.10;;;;;;937742;149;27756;-68
2022/07/16 09:23:28;;;;;;;1.30;1.10;;;42.80;22.40;;;;;;938772;149;27396;-70
2022/07/16 09:26:09;;;;;;;1.20;1.10;;;42.00;22.80;;;;;;937452;149;26366;-68
2022/07/16 09:28:43;;;;;;;1.20;1.02;;;41.30;23.20;;;;;;937842;149;27404;-68
2022/07/16 09:33:37;;;;;;;1.32;1.10;;;40.70;23.50;;;;;;972968;145;36381;-69
2022/07/16 09:36:06;;;;;;;1.67;1.10;;;40.10;23.90;;;;;;963001;148;26270;-68
2022/07/16 09:38:45;;;;;;;2.45;1.00;;;39.90;24.10;;;;;;960961;148;26291;-70
2022/07/16 09:41:14;;;;;;;0.93;0.82;;;39.70;24.00;;;;;;962230;148;26317;-69
2022/07/16 09:43:38;;;;;;;1.55;0.98;;;39.30;24.00;;;;;;962075;148;27316;-71
2022/07/16 09:46:05;;;;;;;2.02;1.20;;;38.90;24.00;;;;;;961606;148;26339;-69
2022/07/16 09:48:31;;;;;;;1.40;1.10;;;38.60;24.30;;;;;;962185;148;26197;-69
2022/07/16 09:50:58;;;;;;;1.72;1.02;;;38.40;25.00;;;;;;959852;148;26195;-70
2022/07/16 09:53:24;;;;;;;1.20;0.90;;;38.40;25.30;;;;;;942009;151;26207;-69
2022/07/16 09:56:06;;;;;;;1.27;0.90;;;38.40;25.10;;;;;;944678;151;26332;-71
2022/07/16 09:58:33;;;;;;;1.35;1.20;;;38.50;25.10;;;;;;943258;151;27894;-71
2022/07/16 10:00:59;;;;;;;2.20;1.17;;;38.50;25.10;;;;;;944662;151;26284;-69
2022/07/16 10:03:26;;;;;;;1.90;1.22;;;38.50;25.00;;;;;;944369;151;26316;-69
2022/07/16 10:05:52;;;;;;;2.98;2.00;;;38.50;25.10;;;;;;944079;151;26605;-69
2022/07/16 10:08:19;;;;;;;2.90;1.50;;;38.40;25.20;;;;;;944821;151;26311;-69
2022/07/16 10:10:45;;;;;;;1.20;1.10;;;38.30;25.10;;;;;;944724;151;26203;-70
2022/07/16 10:13:12;;;;;;;1.30;1.20;;;38.30;25.50;;;;;;944256;151;26248;-69
2022/07/16 10:15:39;;;;;;;1.35;1.25;;;38.30;25.00;;;;;;944663;151;26240;-70
2022/07/16 10:18:05;;;;;;;1.82;0.98;;;38.30;24.90;;;;;;944244;151;26295;-70
2022/07/16 10:20:35;;;;;;;1.05;1.05;;;38.10;24.90;;;;;;941131;151;26201;-70
2022/07/16 10:23:01;;;;;;;3.58;1.55;;;37.90;25.00;;;;;;944364;151;26328;-70
2022/07/16 10:25:28;;;;;;;2.77;1.30;;;37.70;25.10;;;;;;943749;149;27788;-69
2022/07/16 10:27:55;;;;;;;1.37;1.10;;;37.50;25.10;;;;;;944388;151;28458;-69
2022/07/16 10:30:27;;;;;;;1.87;1.20;;;37.30;25.40;;;;;;943670;148;27798;-69
2022/07/16 10:33:00;;;;;;;2.72;1.12;;;37.00;25.20;;;;;;941580;151;27338;-69
2022/07/16 10:35:29;;;;;;;2.05;1.07;;;36.70;25.40;;;;;;937879;152;27834;-72
2022/07/16 10:38:11;;;;;;;1.57;1.10;;;36.30;25.60;;;;;;937682;152;27432;-69
2022/07/16 10:40:37;;;;;;;1.45;1.27;;;36.00;25.90;;;;;;938450;152;27406;-69
2022/07/16 10:43:18;;;;;;;2.92;1.20;;;35.70;26.00;;;;;;938349;152;27278;-69
2022/07/16 10:45:56;;;;;;;2.55;1.30;;;35.50;26.20;;;;;;937827;151;27325;-69
2022/07/16 10:48:25;;;;;;;1.27;1.15;;;35.20;26.30;;;;;;937773;152;27411;-69
2022/07/16 10:51:14;;;;;;;2.00;1.20;;;35.00;26.50;;;;;;937627;150;27243;-69
2022/07/16 10:54:02;;;;;;;1.17;1.10;;;34.80;26.60;;;;;;938147;152;27327;-69
2022/07/16 10:56:34;;;;;;;1.42;1.27;;;34.60;26.70;;;;;;938343;152;27239;-70
2022/07/16 10:59:07;;;;;;;1.42;1.15;;;34.30;26.90;;;;;;937713;152;27311;-69
2022/07/16 11:01:33;;;;;;;1.27;0.95;;;34.10;27.10;;;;;;937639;152;27875;-69
2022/07/16 11:03:59;;;;;;;2.10;1.35;;;33.90;27.30;;;;;;919453;152;27324;-70
2022/07/16 11:06:26;;;;;;;1.42;1.10;;;33.70;27.40;;;;;;927645;150;27347;-70
2022/07/16 11:08:55;;;;;;;1.30;1.10;;;33.60;27.50;;;;;;939859;149;27323;-69
2022/07/16 11:11:21;;;;;;;1.30;1.22;;;33.40;27.70;;;;;;938760;149;27354;-69
2022/07/16 11:13:48;;;;;;;1.07;0.98;;;33.30;27.70;;;;;;938230;151;27405;-69
2022/07/16 11:16:15;;;;;;;1.60;1.47;;;33.20;27.90;;;;;;919956;152;27545;-70
2022/07/16 11:18:41;;;;;;;1.12;1.02;;;33.20;28.10;;;;;;916955;153;27932;-70
2022/07/16 11:21:08;;;;;;;1.50;1.30;;;33.20;28.10;;;;;;937435;150;27485;-73
2022/07/16 11:23:53;;;;;;;1.30;1.20;;;33.20;28.20;;;;;;928206;152;27427;-69
2022/07/16 11:26:25;;;;;;;2.30;1.15;;;33.10;28.40;;;;;;931791;152;27412;-69
2022/07/16 11:28:58;;;;;;;2.67;1.10;;;33.10;28.30;;;;;;931325;152;27356;-69
2022/07/16 11:31:24;;;;;;;3.20;1.10;;;33.00;28.20;;;;;;932049;151;27339;-68
2022/07/16 11:33:51;;;;;;;1.02;1.00;;;32.90;28.20;;;;;;927996;152;27486;-71
2022/07/16 11:36:17;;;;;;;1.65;1.20;;;32.80;28.20;;;;;;925003;155;27329;-69
2022/07/16 11:38:44;;;;;;;2.55;1.30;;;32.60;28.20;;;;;;925268;152;27339;-69
2022/07/16 11:41:10;;;;;;;2.10;1.55;;;32.40;28.40;;;;;;923413;155;27352;-69
2022/07/16 11:43:37;;;;;;;1.32;1.20;;;32.20;28.50;;;;;;925442;152;27319;-69
2022/07/16 11:46:04;;;;;;;1.62;0.95;;;32.10;28.70;;;;;;925631;154;27386;-71
2022/07/16 11:48:36;;;;;;;1.17;1.10;;;32.00;28.80;;;;;;925279;152;27441;-68
2022/07/16 11:51:06;;;;;;;2.08;1.40;;;31.90;28.90;;;;;;924918;152;27416;-70
2022/07/16 11:53:37;;;;;;;1.30;1.20;;;31.80;29.00;;;;;;923851;154;27355;-69
2022/07/16 11:55:59;;;;;;;2.27;1.35;;;31.70;29.60;;;;;;938396;151;27310;-69
2022/07/16 11:58:25;;;;;;;1.37;1.10;;;31.60;29.10;;;;;;939302;152;27353;-69
2022/07/16 12:00:52;;;;;;;0.85;0.85;;;31.60;29.10;;;;;;939483;152;27786;-69
2022/07/16 12:03:18;;;;;;;3.87;1.40;;;31.50;29.20;;;;;;939484;152;27694;-70
2022/07/16 12:05:45;;;;;;;3.10;1.35;;;31.40;29.40;;;;;;939184;152;28192;-69
2022/07/16 12:08:12;;;;;;;1.22;1.12;;;31.20;29.30;;;;;;938934;150;27430;-69
2022/07/16 12:10:38;;;;;;;1.30;1.20;;;31.00;29.30;;;;;;939756;151;27305;-71
2022/07/16 12:13:05;;;;;;;1.35;1.20;;;30.90;29.40;;;;;;938523;151;27416;-72
2022/07/16 12:15:31;;;;;;;3.65;1.22;;;30.70;29.60;;;;;;938740;152;27423;-68
2022/07/16 12:17:58;;;;;;;1.98;1.25;;;30.60;29.90;;;;;;934979;152;27261;-69
2022/07/16 12:20:28;;;;;;;2.22;1.52;;;30.50;30.00;;;;;;937160;152;27420;-69
2022/07/16 12:23:00;;;;;;;1.15;1.07;;;30.40;30.00;;;;;;928221;154;27366;-69
2022/07/16 12:25:33;;;;;;;1.37;1.27;;;30.30;30.90;;;;;;928424;154;27319;-69
2022/07/16 12:27:58;;;;;;;1.17;1.07;;;30.20;30.60;;;;;;925763;153;27375;-68
2022/07/16 12:30:43;;;;;;;1.30;1.17;;;30.20;30.60;;;;;;912553;156;27318;-69
2022/07/16 12:33:09;;;;;;;1.72;1.20;;;30.20;30.70;;;;;;939658;152;27350;-69
2022/07/16 12:35:48;;;;;;;3.10;1.30;;;30.10;31.10;;;;;;916468;152;27416;-69
2022/07/16 12:38:32;;;;;;;1.87;1.25;;;30.10;31.20;;;;;;918107;152;27480;-69
2022/07/16 12:40:59;;;;;;;2.30;1.40;;;30.00;31.30;;;;;;932823;150;27305;-69
2022/07/16 12:43:26;;;;;;;3.60;1.40;;;29.90;31.40;;;;;;937586;150;27392;-69
2022/07/16 12:45:52;;;;;;;1.98;1.30;;;29.80;31.80;;;;;;937302;150;27318;-70
2022/07/16 12:48:19;;;;;;;2.42;1.20;;;29.70;32.10;;;;;;939788;149;27336;-70
2022/07/16 12:50:45;;;;;;;1.52;1.27;;;29.60;32.00;;;;;;933398;151;27481;-69
2022/07/16 12:53:12;;;;;;;2.92;1.80;;;29.60;32.50;;;;;;934494;151;27423;-69
2022/07/16 13:01:08;;;;;;;1.40;1.30;;;29.50;32.70;;;;;;938553;149;27870;-69
2022/07/16 13:03:34;;;;;;;2.75;1.52;;;29.60;32.90;;;;;;923367;152;27857;-69